Time;durP1;ratioP1;P1;durP2;ratioP2;P2;SDS_P1;SDS_P2;PMS_P1;PMS_P2;Temp;Humidity;BMP_temperature;BMP_pressure;BME280_temperature;BME280_humidity;BME280_pressure;Samples;Min_cycle;Max_cycle;Signal;HPM_P1;HPM_P2
2023/09/04 00:03:15;;;;;;;4.82;3.33;;;;;;;19.59;64.88;97840.22;10322676;28;20052;-54
2023/09/04 00:08:14;;;;;;;4.30;3.03;;;;;;;19.65;63.83;97836.50;10322965;28;20555;-54
2023/09/04 00:13:13;;;;;;;4.20;3.25;;;;;;;18.15;63.53;97551.63;10322101;28;20579;-54
2023/09/04 00:18:13;;;;;;;5.00;3.15;;;;;;;19.89;63.08;97816.31;10322029;28;20083;-55
2023/09/04 00:23:12;;;;;;;7.07;3.60;;;;;;;19.98;62.31;97804.56;10324703;28;20064;-53
2023/09/04 00:28:13;;;;;;;6.70;3.40;;;;;;;20.03;62.16;97797.34;10323803;28;20040;-54
2023/09/04 00:33:12;;;;;;;5.13;3.10;;;;;;;20.03;61.55;97771.84;10323589;28;20069;-53
2023/09/04 00:38:11;;;;;;;4.70;3.35;;;;;;;20.12;61.31;97768.00;10324207;28;20103;-54
2023/09/04 00:43:10;;;;;;;4.38;3.30;;;;;;;20.15;61.34;97756.50;10323613;28;20029;-54
2023/09/04 00:48:10;;;;;;;5.57;3.88;;;;;;;20.14;61.06;97750.38;10324109;28;20473;-54
2023/09/04 00:53:10;;;;;;;6.63;3.65;;;;;;;19.79;60.77;97693.78;10323529;28;20120;-54
2023/09/04 00:58:09;;;;;;;5.78;3.05;;;;;;;20.18;60.56;97727.38;10322978;28;20065;-54
2023/09/04 01:03:09;;;;;;;4.65;3.20;;;;;;;20.21;60.05;97695.63;10323281;28;20033;-53
2023/09/04 01:08:08;;;;;;;5.45;3.60;;;;;;;20.20;60.53;97681.59;10323096;28;20500;-54
2023/09/04 01:13:21;;;;;;;5.80;3.80;;;;;;;20.14;62.34;97663.44;10322979;28;20500;-54
2023/09/04 01:18:21;;;;;;;10.43;4.00;;;;;;;19.94;63.55;97639.66;10320335;28;20120;-54
2023/09/04 01:23:19;;;;;;;5.47;3.50;;;;;;;19.96;63.64;97667.66;10321495;28;20567;-54
2023/09/04 01:28:33;;;;;;;5.43;3.30;;;;;;;18.86;68.10;97685.81;10322533;28;20523;-54
2023/09/04 01:33:36;;;;;;;5.75;3.83;;;;;;;18.46;72.13;97687.16;10321738;28;20108;-53
2023/09/04 01:38:36;;;;;;;7.65;3.90;;;;;;;18.08;74.09;97664.78;10322824;28;20125;-53
2023/09/04 01:43:34;;;;;;;6.35;4.43;;;;;;;18.12;74.59;97663.78;10322030;28;20069;-53
2023/09/04 01:48:35;;;;;;;5.85;3.88;;;;;;;18.13;73.95;97653.22;10322146;28;20104;-53
2023/09/04 01:53:34;;;;;;;6.95;4.50;;;;;;;18.26;73.02;97642.31;10320023;28;20088;-53
2023/09/04 01:58:33;;;;;;;6.82;4.65;;;;;;;18.34;72.99;97646.41;10332465;28;20697;-53
2023/09/04 02:03:32;;;;;;;6.45;4.65;;;;;;;18.45;73.11;97643.41;10335270;28;20508;-54
2023/09/04 02:08:31;;;;;;;6.63;4.95;;;;;;;18.41;73.33;97620.78;10335345;28;20076;-54
2023/09/04 02:13:30;;;;;;;6.07;4.50;;;;;;;17.60;73.71;97502.72;10336034;28;20140;-56
2023/09/04 02:18:29;;;;;;;8.38;4.22;;;;;;;18.20;75.32;97656.53;10335126;28;20033;-55
2023/09/04 02:23:28;;;;;;;5.93;3.80;;;;;;;17.98;76.09;97662.44;10335965;28;20060;-54
2023/09/04 02:28:27;;;;;;;4.32;3.80;;;;;;;17.95;76.00;97662.56;10335540;28;20029;-54
2023/09/04 02:33:25;;;;;;;5.20;3.90;;;;;;;18.13;75.04;97658.50;10335596;28;20029;-56
2023/09/04 02:38:24;;;;;;;5.20;3.75;;;;;;;18.28;74.33;97662.38;10334509;28;20569;-55
2023/09/04 02:43:23;;;;;;;6.68;4.05;;;;;;;18.34;74.02;97656.06;10335590;28;20381;-54
2023/09/04 02:48:22;;;;;;;7.20;4.38;;;;;;;18.44;73.85;97652.19;10335108;28;20026;-55
2023/09/04 02:53:22;;;;;;;5.13;4.15;;;;;;;18.53;73.52;97658.91;10334057;28;20056;-55
2023/09/04 02:58:22;;;;;;;5.07;3.90;;;;;;;18.60;73.32;97663.91;10334690;28;20136;-55
2023/09/04 03:03:21;;;;;;;7.35;4.07;;;;;;;18.54;73.31;97640.44;10334019;28;20080;-55
2023/09/04 03:08:19;;;;;;;12.80;4.30;;;;;;;18.48;72.49;97622.28;10330189;28;20045;-55
2023/09/04 03:13:19;;;;;;;5.15;3.55;;;;;;;18.60;71.58;97658.66;10328092;28;20156;-55
2023/09/04 03:18:18;;;;;;;4.40;3.20;;;;;;;18.33;69.88;97607.91;10327359;28;20060;-55
2023/09/04 03:23:17;;;;;;;5.50;3.63;;;;;;;18.64;70.13;97642.75;10326917;28;20124;-55
2023/09/04 03:28:16;;;;;;;5.68;3.65;;;;;;;18.65;69.78;97640.09;10324762;28;20037;-55
2023/09/04 03:33:15;;;;;;;4.80;3.85;;;;;;;18.73;69.38;97642.47;10326535;28;20120;-54
2023/09/04 03:38:14;;;;;;;5.50;4.05;;;;;;;18.71;69.10;97639.03;10308212;28;20148;-55
2023/09/04 03:43:14;;;;;;;4.85;4.20;;;;;;;18.72;68.46;97640.75;10311452;28;20076;-55
2023/09/04 03:48:13;;;;;;;6.53;4.82;;;;;;;18.41;72.33;97636.56;10329565;28;20072;-55
2023/09/04 03:53:12;;;;;;;9.95;5.25;;;;;;;18.26;74.73;97658.06;10329927;28;20116;-54
2023/09/04 03:58:11;;;;;;;9.88;4.93;;;;;;;18.11;75.49;97669.97;10329812;28;20548;-55
2023/09/04 04:03:09;;;;;;;6.25;4.45;;;;;;;18.00;76.01;97662.41;10328796;28;20534;-55
2023/09/04 04:08:08;;;;;;;6.63;4.57;;;;;;;18.02;75.93;97663.22;10329535;28;20104;-55
2023/09/04 04:13:07;;;;;;;11.20;5.05;;;;;;;18.12;75.79;97655.91;10329092;28;20080;-55
2023/09/04 04:18:09;;;;;;;6.88;5.15;;;;;;;18.16;75.64;97658.38;10328364;28;20029;-52
2023/09/04 04:23:08;;;;;;;8.15;5.32;;;;;;;18.23;75.50;97653.78;10328454;28;20061;-54
2023/09/04 04:28:07;;;;;;;8.10;4.80;;;;;;;18.37;75.30;97651.53;10328698;28;20080;-53
2023/09/04 04:33:06;;;;;;;7.38;5.10;;;;;;;18.52;74.98;97639.63;10327527;28;20495;-53
2023/09/04 04:38:08;;;;;;;8.50;5.13;;;;;;;18.58;74.71;97633.34;10309393;28;20381;-53
2023/09/04 04:43:07;;;;;;;6.63;5.20;;;;;;;18.74;73.95;97647.69;10326143;28;20076;-53
2023/09/04 04:48:06;;;;;;;7.15;5.05;;;;;;;18.80;73.74;97646.59;10324628;28;20021;-53
2023/09/04 04:53:05;;;;;;;9.95;6.50;;;;;;;18.99;72.23;97650.28;10321439;28;20541;-55
2023/09/04 04:58:04;;;;;;;7.40;5.60;;;;;;;18.86;72.05;97630.59;10322914;28;20128;-53
2023/09/04 05:03:03;;;;;;;8.75;5.60;;;;;;;19.11;71.49;97650.72;10323368;28;20029;-52
2023/09/04 05:08:03;;;;;;;6.20;5.07;;;;;;;19.08;71.10;97648.22;10319706;28;20052;-55
2023/09/04 05:13:02;;;;;;;18.08;9.40;;;;;;;19.18;67.69;97650.47;10323989;28;20107;-54
2023/09/04 05:18:01;;;;;;;10.05;5.03;;;;;;;19.17;64.37;97638.22;10319747;28;20104;-54
2023/09/04 05:23:00;;;;;;;7.63;4.35;;;;;;;19.22;63.62;97614.38;10318556;28;20037;-54
2023/09/04 05:27:59;;;;;;;6.38;3.40;;;;;;;19.40;61.52;97637.34;10321973;28;20112;-52
2023/09/04 05:32:58;;;;;;;4.05;3.25;;;;;;;19.36;60.10;97643.63;10316004;28;20069;-52
2023/09/04 05:37:58;;;;;;;5.60;3.20;;;;;;;19.35;59.79;97641.06;10320602;28;20147;-54
2023/09/04 05:42:57;;;;;;;6.57;2.97;;;;;;;19.14;59.61;97637.50;10321803;28;20069;-56
2023/09/04 05:47:56;;;;;;;5.07;3.20;;;;;;;19.23;59.09;97631.88;10321824;28;20017;-54
2023/09/04 05:52:55;;;;;;;5.07;3.00;;;;;;;19.02;60.38;97637.03;10321524;28;20660;-54
2023/09/04 05:57:54;;;;;;;6.25;3.13;;;;;;;19.14;61.20;97633.06;10321921;28;20742;-53
2023/09/04 06:02:54;;;;;;;5.80;3.15;;;;;;;19.17;61.91;97642.63;10321434;28;20494;-53
2023/09/04 06:07:53;;;;;;;4.45;2.83;;;;;;;19.44;60.58;97638.94;10321179;28;20520;-54
2023/09/04 06:12:52;;;;;;;3.85;3.08;;;;;;;19.08;60.92;97656.13;10321867;28;20799;-54
2023/09/04 06:17:51;;;;;;;4.47;2.83;;;;;;;18.92;62.13;97659.28;10323158;28;20084;-53
2023/09/04 06:22:50;;;;;;;5.03;3.15;;;;;;;19.17;61.93;97663.66;10321215;28;20845;-54
2023/09/04 06:27:49;;;;;;;5.47;3.50;;;;;;;19.54;60.02;97657.03;10314732;28;20108;-53
2023/09/04 06:32:48;;;;;;;3.17;2.50;;;;;;;19.76;55.51;97657.91;10317269;28;20021;-54
2023/09/04 06:37:47;;;;;;;3.42;2.70;;;;;;;19.74;52.52;97662.38;10301217;28;20128;-54
2023/09/04 06:42:46;;;;;;;3.50;2.13;;;;;;;19.78;52.89;97665.75;10322646;28;20055;-54
2023/09/04 06:47:45;;;;;;;6.53;2.90;;;;;;;19.90;53.00;97669.69;10313282;28;20044;-54
2023/09/04 06:52:45;;;;;;;4.35;2.42;;;;;;;20.01;52.08;97678.00;10330282;28;20068;-54
2023/09/04 06:57:44;;;;;;;3.33;2.50;;;;;;;19.99;53.50;97656.13;10328969;28;20077;-55
2023/09/04 07:02:43;;;;;;;5.72;3.28;;;;;;;20.12;54.14;97688.97;10331153;28;20136;-56
2023/09/04 07:07:42;;;;;;;2.47;2.22;;;;;;;20.00;52.73;97692.09;10331063;28;20590;-57
2023/09/04 07:12:41;;;;;;;3.00;2.30;;;;;;;19.74;53.99;97699.22;10330923;28;20056;-55
2023/09/04 07:17:40;;;;;;;2.72;2.33;;;;;;;19.40;54.77;97661.03;10331923;28;20116;-53
2023/09/04 07:22:39;;;;;;;4.63;2.97;;;;;;;19.65;54.27;97710.16;10328480;28;20438;-53
2023/09/04 07:27:38;;;;;;;4.25;2.50;;;;;;;19.66;53.22;97704.81;10327349;28;20025;-54
2023/09/04 07:32:37;;;;;;;3.95;2.60;;;;;;;19.76;53.38;97715.84;10323928;28;20034;-55
2023/09/04 07:37:36;;;;;;;3.92;2.53;;;;;;;19.84;52.60;97716.41;10326208;28;20515;-54
2023/09/04 07:42:36;;;;;;;3.78;2.45;;;;;;;19.94;52.24;97718.69;10326671;28;20566;-54
2023/09/04 07:47:35;;;;;;;4.35;2.72;;;;;;;20.11;52.09;97724.13;10325907;28;20534;-55
2023/09/04 07:52:34;;;;;;;6.18;4.03;;;;;;;20.16;52.11;97727.44;10325813;28;20594;-55
2023/09/04 07:57:33;;;;;;;4.25;3.10;;;;;;;20.22;51.59;97723.72;10318063;28;20874;-54
2023/09/04 08:02:32;;;;;;;3.95;2.72;;;;;;;20.06;51.75;97723.47;10324613;28;20500;-54
2023/09/04 08:07:31;;;;;;;4.55;3.10;;;;;;;20.05;51.24;97708.59;10322807;28;20120;-54
2023/09/04 08:12:29;;;;;;;6.60;3.47;;;;;;;20.32;51.67;97743.50;10320142;28;20233;-55
2023/09/04 08:17:28;;;;;;;4.50;3.25;;;;;;;20.06;51.56;97741.91;10307209;28;20030;-56
2023/09/04 08:22:28;;;;;;;6.00;2.88;;;;;;;19.82;53.99;97752.47;10320817;28;20032;-55
2023/09/04 08:27:27;;;;;;;6.75;3.67;;;;;;;19.73;54.28;97747.56;10323055;28;20073;-54
2023/09/04 08:32:26;;;;;;;7.57;3.65;;;;;;;19.55;53.54;97756.09;10322112;28;20125;-55
2023/09/04 08:37:25;;;;;;;5.88;3.55;;;;;;;19.39;56.48;97759.31;10309493;28;20145;-55
2023/09/04 08:42:24;;;;;;;6.63;3.63;;;;;;;19.21;59.38;97752.09;10323328;28;20032;-53
2023/09/04 08:47:23;;;;;;;5.63;3.83;;;;;;;19.19;60.79;97767.06;10323472;28;20549;-55
2023/09/04 08:52:22;;;;;;;4.80;3.33;;;;;;;19.28;62.57;97760.63;10321363;28;20065;-55
2023/09/04 08:57:25;;;;;;;5.28;3.85;;;;;;;19.27;64.02;97775.53;10319160;28;20850;-56
2023/09/04 09:02:24;;;;;;;6.03;4.40;;;;;;;18.72;66.40;97738.03;10321312;28;20124;-56
2023/09/04 09:07:27;;;;;;;5.95;4.30;;;;;;;18.72;68.88;97754.66;10321669;28;20053;-55
2023/09/04 09:12:26;;;;;;;4.95;3.97;;;;;;;18.68;68.18;97787.19;10313534;28;20136;-55
2023/09/04 09:17:24;;;;;;;7.15;4.93;;;;;;;18.75;69.17;97782.59;10316545;28;20029;-55
2023/09/04 09:22:24;;;;;;;6.53;4.60;;;;;;;18.69;68.81;97788.94;10311950;28;20025;-55
2023/09/04 09:27:28;;;;;;;6.57;4.57;;;;;;;18.61;68.91;97783.88;10309662;28;20116;-55
2023/09/04 09:32:31;;;;;;;7.10;4.85;;;;;;;18.37;69.92;97761.03;10317112;28;20578;-55
2023/09/04 09:37:33;;;;;;;6.90;5.00;;;;;;;18.57;71.25;97792.78;10309932;28;20067;-55
2023/09/04 09:42:33;;;;;;;6.95;5.35;;;;;;;18.68;74.37;97792.44;10320393;28;20064;-55
2023/09/04 09:47:33;;;;;;;8.10;5.65;;;;;;;18.86;74.00;97790.13;10314657;28;20057;-55
2023/09/04 09:52:32;;;;;;;8.05;5.45;;;;;;;18.91;74.24;97791.69;10314112;28;20073;-55
2023/09/04 09:57:33;;;;;;;7.75;4.78;;;;;;;19.07;74.76;97799.91;10321001;28;21264;-55
2023/09/04 10:02:32;;;;;;;7.97;5.22;;;;;;;19.30;73.56;97800.88;10320231;28;20303;-55
2023/09/04 10:07:32;;;;;;;5.82;4.50;;;;;;;19.19;69.92;97804.75;10326942;28;20022;-55
2023/09/04 10:12:48;;;;;;;8.27;5.22;;;;;;;18.98;72.64;97811.59;10318167;28;20075;-55
2023/09/04 10:17:58;;;;;;;9.73;6.18;;;;;;;19.08;73.81;97809.50;10308382;28;20069;-55
2023/09/04 10:23:08;;;;;;;7.90;5.55;;;;;;;19.01;71.25;97803.59;10332653;28;20065;-54
2023/09/04 10:28:12;;;;;;;8.05;5.32;;;;;;;19.01;72.36;97808.00;10330646;28;20068;-54
2023/09/04 10:33:13;;;;;;;8.38;6.00;;;;;;;18.98;71.78;97811.59;10324352;28;20053;-54
2023/09/04 10:38:13;;;;;;;9.73;5.82;;;;;;;18.99;72.26;97808.09;10330448;28;20512;-54
2023/09/04 10:43:12;;;;;;;8.90;5.85;;;;;;;19.08;74.50;97798.13;10326863;28;20068;-54
2023/09/04 10:48:11;;;;;;;8.63;5.70;;;;;;;18.95;73.33;97801.19;10325678;28;20116;-54
2023/09/04 10:53:10;;;;;;;12.35;8.02;;;;;;;18.94;77.52;97804.72;10327471;28;20029;-53
2023/09/04 10:58:10;;;;;;;10.23;6.75;;;;;;;19.01;76.21;97810.63;10325202;28;20069;-54
2023/09/04 11:03:15;;;;;;;9.73;7.03;;;;;;;19.06;74.96;97813.13;10326320;28;20061;-54
2023/09/04 11:08:49;;;;;;;10.00;6.93;;;;;;;19.13;77.56;97812.00;10320949;28;20075;-53
2023/09/04 11:13:59;;;;;;;89.38;79.47;;;;;;;18.94;75.05;97815.25;10327028;28;20075;-54
2023/09/04 11:19:24;;;;;;;8.23;6.30;;;;;;;19.17;74.48;97817.09;10326168;28;20116;-54
2023/09/04 11:24:23;;;;;;;8.13;5.88;;;;;;;19.08;71.88;97806.03;10321049;28;20567;-54
2023/09/04 11:29:22;;;;;;;7.22;5.75;;;;;;;19.01;75.37;97803.59;10322857;28;20487;-54
2023/09/04 11:34:21;;;;;;;8.07;5.80;;;;;;;18.82;74.49;97802.50;10322630;28;20125;-53
2023/09/04 11:39:20;;;;;;;8.15;6.07;;;;;;;18.91;76.30;97802.22;10325033;28;20072;-54
2023/09/04 11:44:19;;;;;;;7.88;5.78;;;;;;;18.86;75.97;97821.69;10322902;28;20148;-55
2023/09/04 11:49:18;;;;;;;8.35;6.20;;;;;;;18.88;75.17;97807.56;10320377;28;20105;-54
2023/09/04 11:54:31;;;;;;;7.60;5.60;;;;;;;18.54;75.75;97805.16;10327442;28;20501;-54
2023/09/04 11:59:40;;;;;;;9.95;7.13;;;;;;;18.27;79.07;97809.50;10320649;28;20077;-53
2023/09/04 12:04:39;;;;;;;;;;;;;;;17.70;79.09;97809.41;10327605;28;20045;-54
2023/09/04 12:09:38;;;;;;;11.20;7.70;;;;;;;17.02;80.58;97807.78;10319411;28;20651;-53
2023/09/04 12:14:44;;;;;;;10.73;7.80;;;;;;;16.49;84.52;97808.19;10326204;28;20069;-53
2023/09/04 12:19:43;;;;;;;10.35;8.05;;;;;;;16.25;86.63;97811.38;10313567;28;20081;-53
2023/09/04 12:24:59;;;;;;;14.75;9.65;;;;;;;15.85;89.09;97814.88;10316882;28;20068;-52
2023/09/04 12:29:59;;;;;;;13.80;8.98;;;;;;;15.66;90.86;97809.97;10321056;28;20063;-52
2023/09/04 12:35:04;;;;;;;10.57;8.48;;;;;;;15.76;92.24;97809.78;10324743;28;20077;-52
2023/09/04 12:40:03;;;;;;;13.32;9.10;;;;;;;16.00;91.87;97809.31;10321124;28;20069;-52
2023/09/04 12:45:04;;;;;;;10.98;7.88;;;;;;;16.11;91.12;97805.59;10314570;28;20112;-52
2023/09/04 12:50:04;;;;;;;233.38;183.13;;;;;;;16.17;92.56;97808.09;10317943;28;20503;-53
2023/09/04 12:55:03;;;;;;;11.65;8.77;;;;;;;16.39;93.43;97806.69;10322649;28;20063;-52
2023/09/04 13:00:03;;;;;;;11.13;8.63;;;;;;;16.45;92.17;97772.50;10319089;28;20116;-53
2023/09/04 13:05:03;;;;;;;12.63;9.13;;;;;;;16.70;91.09;97795.47;10313376;28;20096;-53
2023/09/04 13:10:03;;;;;;;10.73;9.00;;;;;;;16.69;92.11;97785.88;10320456;28;20069;-53
2023/09/04 13:15:02;;;;;;;9.52;7.88;;;;;;;16.87;91.78;97793.31;10320977;28;20067;-53
2023/09/04 13:20:04;;;;;;;11.10;8.25;;;;;;;17.00;90.81;97796.47;10307458;28;20505;-55
2023/09/04 13:25:03;;;;;;;12.10;9.13;;;;;;;16.98;90.68;97785.19;10302521;28;20076;-53
2023/09/04 13:30:04;;;;;;;11.45;9.05;;;;;;;16.85;90.20;97794.25;10321725;28;20101;-53
2023/09/04 13:35:03;;;;;;;11.75;10.05;;;;;;;16.81;90.42;97795.22;10320067;28;20166;-53
2023/09/04 13:40:04;;;;;;;11.60;9.50;;;;;;;16.55;91.09;97739.06;10321226;28;20551;-54
2023/09/04 13:45:03;;;;;;;12.23;9.68;;;;;;;16.81;90.42;97775.09;10320741;28;20076;-55
2023/09/04 13:50:02;;;;;;;22.85;18.90;;;;;;;16.84;92.07;97767.19;10317906;28;20119;-54
2023/09/04 13:55:01;;;;;;;12.00;9.82;;;;;;;17.05;91.60;97776.25;10317426;28;20033;-54
2023/09/04 14:00:00;;;;;;;11.63;8.95;;;;;;;17.19;90.85;97781.13;10320276;28;20125;-54
2023/09/04 14:04:59;;;;;;;11.70;9.55;;;;;;;17.24;91.21;97758.25;10320514;28;20048;-54
2023/09/04 14:09:58;;;;;;;10.70;8.88;;;;;;;17.29;90.61;97763.38;10318218;28;20084;-54
2023/09/04 14:14:57;;;;;;;11.32;9.48;;;;;;;17.31;91.25;97772.91;10318417;28;20137;-54
2023/09/04 14:19:56;;;;;;;12.25;9.35;;;;;;;17.29;89.87;97772.09;10320117;28;20053;-54
2023/09/04 14:24:55;;;;;;;12.18;10.25;;;;;;;17.26;90.21;97785.31;10319200;28;20038;-53
2023/09/04 14:29:55;;;;;;;;;;;;;;;17.25;91.00;97775.69;10320521;28;20108;-53
2023/09/04 14:34:54;;;;;;;13.10;11.48;;;;;;;17.24;89.28;97781.84;10318489;28;19964;-54
2023/09/04 14:39:54;;;;;;;12.73;9.95;;;;;;;17.22;89.17;97778.41;10318837;28;20034;-55
2023/09/04 14:44:54;;;;;;;12.65;9.90;;;;;;;17.14;88.70;97764.63;10316854;28;20136;-55
2023/09/04 14:49:53;;;;;;;13.68;10.05;;;;;;;17.32;88.75;97769.38;10320335;28;20837;-54
2023/09/04 14:54:52;;;;;;;12.13;9.80;;;;;;;17.17;86.71;97771.56;10319540;28;20071;-55
2023/09/04 14:59:54;;;;;;;12.05;10.20;;;;;;;17.14;87.69;97775.13;10320692;28;20044;-54
2023/09/04 15:04:54;;;;;;;15.10;10.77;;;;;;;17.10;87.18;97778.75;10324627;28;20091;-54
2023/09/04 15:09:56;;;;;;;15.85;11.23;;;;;;;17.07;87.73;97778.81;10327490;28;20076;-54
2023/09/04 15:14:55;;;;;;;12.77;10.05;;;;;;;17.13;87.65;97778.66;10326294;28;20065;-55
2023/09/04 15:19:54;;;;;;;12.82;10.20;;;;;;;17.17;87.88;97785.56;10325934;28;20021;-55
2023/09/04 15:24:53;;;;;;;12.68;10.02;;;;;;;17.21;87.89;97779.28;10326419;28;20068;-55
2023/09/04 15:29:52;;;;;;;13.35;10.23;;;;;;;17.28;87.50;97785.25;10322763;28;20112;-54
2023/09/04 15:34:51;;;;;;;14.55;11.30;;;;;;;17.23;88.16;97764.38;10326637;28;20091;-55
2023/09/04 15:39:51;;;;;;;13.15;10.63;;;;;;;17.33;86.87;97788.59;10326953;28;20472;-53
2023/09/04 15:44:50;;;;;;;13.40;10.48;;;;;;;17.31;88.04;97772.91;10323297;28;20080;-53
2023/09/04 15:49:49;;;;;;;15.10;11.15;;;;;;;17.49;87.48;97796.91;10325536;28;20088;-53
2023/09/04 15:54:48;;;;;;;14.20;11.07;;;;;;;17.41;87.91;97796.28;10326993;28;20068;-54
2023/09/04 15:59:47;;;;;;;13.05;11.00;;;;;;;17.45;87.90;97800.50;10325855;28;20128;-55
2023/09/04 16:04:46;;;;;;;13.35;10.45;;;;;;;17.40;86.56;97808.50;10323921;28;20507;-55
2023/09/04 16:09:45;;;;;;;12.93;11.13;;;;;;;17.34;87.67;97808.69;10325826;28;20556;-55
2023/09/04 16:14:44;;;;;;;12.57;10.40;;;;;;;17.25;86.61;97794.06;10320319;28;20404;-55
2023/09/04 16:19:43;;;;;;;12.52;10.20;;;;;;;17.16;86.93;97812.66;10318464;28;20410;-54
2023/09/04 16:24:42;;;;;;;;;;;;;;;17.16;87.14;97819.66;10322004;28;20116;-54
2023/09/04 16:29:41;;;;;;;14.20;11.00;;;;;;;17.10;87.15;97831.19;10317885;28;20346;-54
2023/09/04 16:34:39;;;;;;;11.98;10.07;;;;;;;16.90;87.06;97837.78;10313089;28;20045;-54
2023/09/04 16:39:38;;;;;;;13.40;10.50;;;;;;;16.87;87.64;97845.72;10320466;28;20116;-54
2023/09/04 16:44:37;;;;;;;15.18;12.15;;;;;;;16.77;87.85;97844.22;10323750;28;20101;-54
2023/09/04 16:49:36;;;;;;;14.60;10.95;;;;;;;16.63;88.59;97855.03;10322171;28;20095;-55
2023/09/04 16:54:35;;;;;;;14.52;11.73;;;;;;;16.65;89.00;97849.72;10324414;28;20423;-56
2023/09/04 16:59:34;;;;;;;;;;;;;;;16.50;89.69;97857.06;10322356;28;20143;-54
2023/09/04 17:04:33;;;;;;;18.13;13.43;;;;;;;16.29;91.23;97860.16;10318404;28;19921;-54
2023/09/04 17:09:32;;;;;;;;;;;;;;;16.06;92.03;97869.38;10323833;28;20041;-55
2023/09/04 17:14:31;;;;;;;15.17;12.70;;;;;;;15.85;93.10;97865.44;10322393;28;19964;-55
2023/09/04 17:19:29;;;;;;;;;;;;;;;15.65;94.58;97876.28;10323138;28;20128;-55
2023/09/04 17:24:28;;;;;;;28.13;21.23;;;;;;;15.59;95.61;97886.84;10323464;28;19956;-55
2023/09/04 17:29:27;;;;;;;;;;;;;;;15.39;96.62;97899.47;10311286;28;20108;-55
2023/09/04 17:34:28;;;;;;;19.45;13.45;;;;;;;14.69;97.70;97847.47;10303013;28;20399;-54
2023/09/04 17:39:28;;;;;;;21.00;13.82;;;;;;;14.98;98.81;97903.63;10307893;28;20488;-54
2023/09/04 17:44:27;;;;;;;18.70;13.23;;;;;;;15.01;99.63;97919.25;10313184;28;20083;-54
2023/09/04 17:49:26;;;;;;;;;;;;;;;14.71;100.00;97916.25;10318518;28;20087;-53
2023/09/04 17:54:25;;;;;;;18.63;13.70;;;;;;;14.86;100.00;97914.28;10318324;28;19956;-54
2023/09/04 17:59:24;;;;;;;;;;;;;;;14.89;100.00;97920.31;10318536;28;20045;-55
2023/09/04 18:04:22;;;;;;;27.38;15.35;;;;;;;14.98;100.00;97921.94;10317454;28;20011;-53
2023/09/04 18:09:21;;;;;;;;;;;;;;;14.88;100.00;97929.06;10320087;28;20046;-54
2023/09/04 18:14:20;;;;;;;18.30;12.75;;;;;;;14.88;100.00;97930.81;10315961;28;19990;-54
2023/09/04 18:19:19;;;;;;;;;;;;;;;14.85;100.00;97925.63;10308741;28;20045;-55
2023/09/04 18:24:18;;;;;;;18.53;12.63;;;;;;;15.10;99.86;97929.56;10310203;28;20025;-55
2023/09/04 18:29:17;;;;;;;;;;;;;;;15.27;99.73;97928.41;10317020;28;20073;-54
2023/09/04 18:34:15;;;;;;;22.43;14.47;;;;;;;15.42;99.94;97921.19;10310244;28;19919;-53
2023/09/04 18:39:14;;;;;;;;;;;;;;;15.57;99.73;97921.78;10315502;28;20033;-55
2023/09/04 18:44:13;;;;;;;16.05;12.38;;;;;;;15.68;98.11;97923.31;10324292;28;19927;-54
2023/09/04 18:49:12;;;;;;;18.92;13.52;;;;;;;15.66;98.39;97919.84;10324674;28;20080;-52
2023/09/04 18:54:12;;;;;;;18.42;13.43;;;;;;;15.81;98.31;97923.09;10319986;28;20041;-55
2023/09/04 18:59:10;;;;;;;17.38;13.40;;;;;;;15.78;97.68;97931.00;10313083;28;20121;-54
2023/09/04 19:04:09;;;;;;;19.20;13.82;;;;;;;15.76;97.86;97920.53;10323924;28;20029;-53
2023/09/04 19:09:08;;;;;;;;;;;;;;;15.92;98.00;97923.75;10316870;28;20069;-54
2023/09/04 19:14:07;;;;;;;22.93;15.13;;;;;;;16.05;97.78;97916.53;10323645;28;19913;-55
2023/09/04 19:19:06;;;;;;;;;;;;;;;16.18;97.25;97919.75;10323942;28;20469;-55
2023/09/04 19:24:05;;;;;;;20.57;14.33;;;;;;;16.22;96.90;97919.66;10320227;28;19953;-55
2023/09/04 19:29:04;;;;;;;17.85;12.88;;;;;;;16.29;96.94;97921.25;10322536;28;20473;-54
2023/09/04 19:34:03;;;;;;;17.55;13.13;;;;;;;16.29;95.79;97921.25;10323032;28;20502;-53
2023/09/04 19:39:03;;;;;;;17.63;13.68;;;;;;;16.30;96.02;97916.88;10324102;28;20108;-53
2023/09/04 19:44:02;;;;;;;18.02;12.60;;;;;;;16.25;96.20;97916.13;10324644;28;20096;-53
2023/09/04 19:49:01;;;;;;;16.70;13.35;;;;;;;16.18;96.48;97893.56;10325282;28;20130;-50
2023/09/04 19:54:00;;;;;;;17.42;13.48;;;;;;;16.37;95.90;97918.50;10323510;28;20029;-51
2023/09/04 19:58:58;;;;;;;;;;;;;;;16.37;94.96;97915.88;10326497;28;20052;-52
2023/09/04 20:03:57;;;;;;;17.93;12.00;;;;;;;16.15;94.39;97917.22;10325653;28;20058;-52
2023/09/04 20:08:56;;;;;;;;;;;;;;;16.00;94.43;97911.41;10325052;28;20464;-54
2023/09/04 20:13:55;;;;;;;16.37;13.20;;;;;;;14.88;94.24;97724.41;10325095;28;19919;-53
2023/09/04 20:18:55;;;;;;;;;;;;;;;16.06;94.66;97918.25;10326195;28;20520;-51
2023/09/04 20:23:55;;;;;;;19.10;13.23;;;;;;;16.14;94.79;97916.34;10322706;28;20420;-52
2023/09/04 20:28:55;;;;;;;16.48;12.90;;;;;;;16.19;94.97;97914.50;10325300;28;20104;-51
2023/09/04 20:33:54;;;;;;;21.65;14.00;;;;;;;16.07;95.71;97873.72;10321857;28;20077;-52
2023/09/04 20:38:53;;;;;;;17.23;13.63;;;;;;;16.29;96.05;97900.31;10324132;28;20033;-52
2023/09/04 20:43:52;;;;;;;;;;;;;;;16.39;95.64;97906.19;10321267;28;20070;-53
2023/09/04 20:48:52;;;;;;;17.63;12.50;;;;;;;16.41;95.73;97912.28;10320558;28;19917;-52
2023/09/04 20:53:51;;;;;;;17.23;13.50;;;;;;;16.43;96.26;97907.88;10318636;28;20592;-53
2023/09/04 20:58:50;;;;;;;18.10;14.18;;;;;;;16.46;96.28;97897.31;10319615;28;20559;-53
2023/09/04 21:03:48;;;;;;;;;;;;;;;16.56;95.85;97911.09;10319573;28;20065;-54
2023/09/04 23:26:07;;;;;;;19.95;11.85;;;;;;;16.52;97.87;97902.41;10330441;28;20065;-54
2023/09/04 23:31:06;;;;;;;16.42;11.52;;;;;;;16.58;97.25;97895.31;10331295;28;20056;-53
2023/09/04 23:36:24;;;;;;;14.70;10.93;;;;;;;16.56;96.91;97907.59;10331045;28;20057;-52
2023/09/04 23:46:40;;;;;;;19.65;11.38;;;;;;;16.66;97.72;97924.84;10326721;28;20336;-52
2023/09/04 23:51:39;;;;;;;17.75;11.50;;;;;;;16.74;97.03;97922.88;10326702;28;20025;-52
2023/09/04 23:56:38;;;;;;;;;;;;;;;16.71;96.61;97925.59;10326887;28;20132;-53
